createdAt,value
2022-11-11T00:01:23.747Z,7.93
2022-11-11T00:03:50.891Z,6.07
2022-11-11T00:06:18.267Z,7.78
2022-11-11T00:08:47.616Z,7.32
2022-11-11T00:11:15.570Z,7.50
2022-11-11T00:13:43.812Z,7.65
2022-11-11T00:16:10.988Z,7.07
2022-11-11T00:18:57.836Z,8.13
2022-11-11T00:21:37.091Z,7.70
2022-11-11T00:24:28.222Z,7.35
2022-11-11T00:26:55.480Z,7.18
2022-11-11T00:29:22.668Z,7.60
2022-11-11T00:32:08.359Z,7.97
2022-11-11T00:34:35.528Z,7.65
2022-11-11T00:37:02.810Z,7.32
2022-11-11T00:39:29.991Z,7.97
2022-11-11T00:41:57.201Z,8.00
2022-11-11T00:44:24.516Z,7.70
2022-11-11T00:47:10.315Z,7.93
2022-11-11T00:52:23.586Z,7.90
2022-11-11T00:54:50.795Z,9.13
2022-11-11T00:57:17.936Z,8.80
2022-11-11T00:59:45.107Z,8.48
2022-11-11T01:02:12.483Z,8.45
2022-11-11T01:04:39.747Z,8.77
2022-11-11T01:07:07.035Z,8.45
2022-11-11T01:09:34.356Z,8.93
2022-11-11T01:12:01.562Z,9.27
2022-11-11T01:14:28.832Z,9.43
2022-11-11T01:16:56.082Z,9.38
2022-11-11T01:19:23.361Z,10.40
2022-11-11T01:21:50.530Z,9.93
2022-11-11T01:24:18.002Z,9.77
2022-11-11T01:26:45.166Z,8.98
2022-11-11T01:29:12.547Z,9.48
2022-11-11T01:31:39.875Z,9.35
2022-11-11T01:34:07.152Z,9.85
2022-11-11T01:36:34.316Z,9.32
2022-11-11T01:39:02.090Z,10.48
2022-11-11T01:41:34.639Z,9.55
2022-11-11T01:44:22.298Z,11.45
2022-11-11T01:47:04.923Z,9.25
2022-11-11T01:49:35.250Z,10.27
2022-11-11T01:52:02.532Z,10.18
2022-11-11T01:54:38.746Z,9.73
2022-11-11T01:57:20.043Z,10.23
2022-11-11T01:59:48.746Z,9.75
2022-11-11T02:02:21.909Z,10.77
2022-11-11T02:05:09.238Z,11.00
2022-11-11T02:07:37.267Z,11.30
2022-11-11T02:10:06.468Z,11.35
2022-11-11T02:12:52.622Z,11.38
2022-11-11T02:15:20.022Z,10.98
2022-11-11T02:17:50.700Z,11.05
2022-11-11T02:20:25.349Z,12.30
2022-11-11T02:23:04.659Z,12.10
2022-11-11T02:25:33.326Z,13.30
2022-11-11T02:28:02.335Z,12.13
2022-11-11T02:30:29.544Z,12.98
2022-11-11T02:32:56.916Z,13.65
2022-11-11T02:35:26.520Z,13.82
2022-11-11T02:37:54.210Z,13.18
2022-11-11T02:40:24.593Z,13.57
2022-11-11T02:42:52.018Z,12.80
2022-11-11T02:45:19.348Z,13.75
2022-11-11T02:47:46.574Z,14.32
2022-11-11T02:50:13.778Z,14.85
2022-11-11T02:52:41.001Z,14.55
2022-11-11T02:55:08.545Z,13.38
2022-11-11T02:57:35.945Z,15.65
2022-11-11T03:00:03.450Z,15.32
2022-11-11T03:02:31.000Z,14.02
2022-11-11T03:04:58.718Z,15.27
2022-11-11T03:07:26.578Z,15.60
2022-11-11T03:09:54.053Z,14.13
2022-11-11T03:12:21.277Z,15.75
2022-11-11T03:14:48.592Z,15.57
2022-11-11T03:17:34.357Z,14.93
2022-11-11T03:22:59.634Z,15.88
2022-11-11T03:25:39.093Z,16.58
2022-11-11T03:28:07.755Z,16.30
2022-11-11T03:30:35.328Z,15.35
2022-11-11T03:33:02.674Z,16.80
2022-11-11T03:35:30.144Z,17.15
2022-11-11T03:38:16.245Z,16.38
2022-11-11T03:40:46.191Z,16.92
2022-11-11T03:43:13.916Z,17.23
2022-11-11T03:45:41.805Z,17.75
2022-11-11T03:48:09.273Z,18.23
2022-11-11T03:50:36.464Z,18.73
2022-11-11T03:53:03.897Z,19.77
2022-11-11T03:55:34.175Z,18.73
2022-11-11T03:58:01.630Z,19.45
2022-11-11T04:00:29.637Z,18.92
2022-11-11T04:03:25.478Z,19.55
2022-11-11T04:09:12.799Z,19.05
2022-11-11T04:11:48.352Z,20.95
2022-11-11T04:14:34.598Z,21.27
2022-11-11T04:17:01.736Z,19.75
2022-11-11T04:19:47.538Z,21.10
2022-11-11T04:25:00.406Z,21.55
2022-11-11T04:29:54.609Z,21.02
2022-11-11T04:32:40.802Z,21.02
2022-11-11T04:35:12.273Z,21.85
2022-11-11T04:37:47.062Z,21.25
2022-11-11T04:40:32.886Z,22.35
2022-11-11T04:43:00.081Z,21.75
2022-11-11T04:45:33.980Z,22.05
2022-11-11T04:48:04.123Z,22.92
2022-11-11T04:50:32.715Z,22.25
2022-11-11T04:53:00.334Z,21.80
2022-11-11T04:55:46.155Z,21.58
2022-11-11T05:00:40.660Z,22.52
2022-11-11T05:03:17.401Z,23.80
2022-11-11T05:06:13.454Z,22.52
2022-11-11T05:08:56.706Z,22.30
2022-11-11T05:11:25.376Z,22.73
2022-11-11T05:14:11.883Z,23.20
2022-11-11T05:17:00.370Z,23.40
2022-11-11T05:19:46.337Z,24.10
2022-11-11T05:22:31.946Z,21.88
2022-11-11T05:25:18.171Z,23.20
2022-11-11T05:27:45.335Z,23.55
2022-11-11T05:30:14.318Z,23.70
2022-11-11T05:32:41.551Z,26.02
2022-11-11T05:35:09.546Z,23.90
2022-11-11T05:37:36.903Z,22.38
2022-11-11T05:40:04.384Z,24.35
2022-11-11T05:42:31.567Z,23.90
2022-11-11T05:44:59.138Z,24.02
2022-11-11T05:47:26.278Z,24.85
2022-11-11T05:49:53.507Z,24.95
2022-11-11T05:52:20.654Z,23.63
2022-11-11T05:54:47.846Z,23.15
2022-11-11T05:57:15.080Z,24.33
2022-11-11T05:59:42.253Z,22.40
2022-11-11T06:02:09.836Z,22.20
2022-11-11T06:04:37.094Z,23.48
2022-11-11T06:07:04.368Z,23.05
2022-11-11T06:09:31.609Z,21.48
2022-11-11T06:11:58.818Z,23.10
2022-11-11T06:14:25.985Z,22.20
2022-11-11T06:16:53.128Z,23.27
2022-11-11T06:19:20.271Z,22.50
2022-11-11T06:22:01.094Z,22.55
2022-11-11T06:24:28.385Z,21.55
2022-11-11T06:26:56.103Z,23.38
2022-11-11T06:29:23.531Z,22.75
2022-11-11T06:31:50.735Z,22.77
2022-11-11T06:34:17.954Z,23.20
2022-11-11T06:36:45.134Z,22.15
2022-11-11T06:39:12.502Z,21.77
2022-11-11T06:41:39.639Z,22.63
2022-11-11T06:44:06.785Z,22.17
2022-11-11T06:46:33.938Z,21.80
2022-11-11T06:49:01.103Z,21.75
2022-11-11T06:51:28.331Z,23.30
2022-11-11T06:53:55.457Z,22.02
2022-11-11T06:56:22.594Z,20.60
2022-11-11T06:58:49.752Z,21.70
2022-11-11T07:01:17.010Z,22.30
2022-11-11T07:03:44.205Z,21.85
2022-11-11T07:06:11.407Z,20.83
2022-11-11T07:08:38.563Z,21.83
2022-11-11T07:11:13.958Z,22.55
2022-11-11T07:13:44.589Z,21.88
2022-11-11T07:16:12.302Z,22.42
2022-11-11T07:18:39.479Z,21.52
2022-11-11T07:21:06.811Z,21.77
2022-11-11T07:23:33.969Z,20.70
2022-11-11T07:26:01.161Z,21.33
2022-11-11T07:28:28.354Z,19.83
2022-11-11T07:30:55.499Z,20.63
2022-11-11T07:33:24.746Z,20.35
2022-11-11T07:35:52.255Z,21.02
2022-11-11T07:38:19.519Z,20.55
2022-11-11T07:40:46.646Z,20.85
2022-11-11T07:43:13.834Z,19.88
2022-11-11T07:45:41.014Z,19.73
2022-11-11T07:48:08.171Z,20.23
2022-11-11T07:50:35.310Z,20.10
2022-11-11T07:53:02.474Z,20.15
2022-11-11T07:55:29.651Z,20.42
2022-11-11T07:57:58.258Z,20.98
2022-11-11T08:00:25.434Z,19.42
2022-11-11T08:02:57.826Z,20.52
2022-11-11T08:05:26.245Z,19.48
2022-11-11T08:07:53.484Z,20.20
2022-11-11T08:10:20.706Z,20.10
2022-11-11T08:13:12.935Z,18.73
2022-11-11T08:15:40.108Z,19.27
2022-11-11T08:18:07.292Z,20.00
2022-11-11T08:20:34.606Z,20.55
2022-11-11T08:25:51.386Z,19.38
2022-11-11T08:28:18.550Z,21.63
2022-11-11T08:30:46.035Z,20.40
2022-11-11T08:36:01.279Z,18.85
2022-11-11T08:38:28.695Z,17.80
2022-11-11T08:40:56.047Z,19.30
2022-11-11T08:43:23.769Z,19.60
2022-11-11T08:45:53.447Z,20.15
2022-11-11T08:48:20.632Z,19.15
2022-11-11T08:50:47.886Z,18.48
2022-11-11T08:53:15.070Z,19.00
2022-11-11T08:55:42.237Z,19.27
2022-11-11T08:58:09.472Z,20.30
2022-11-11T09:00:36.646Z,17.98
2022-11-11T09:03:05.072Z,19.48
2022-11-11T09:05:32.587Z,18.35
2022-11-11T09:08:03.845Z,18.90
2022-11-11T09:10:30.999Z,18.58
2022-11-11T09:12:58.775Z,18.98
2022-11-11T09:15:26.524Z,18.35
2022-11-11T09:17:54.175Z,19.58
2022-11-11T09:20:25.011Z,19.40
2022-11-11T09:22:53.209Z,19.42
2022-11-11T09:25:21.315Z,19.20
2022-11-11T09:27:55.471Z,18.85
2022-11-11T09:30:22.627Z,20.30
2022-11-11T09:32:49.765Z,18.20
2022-11-11T09:35:16.948Z,18.70
2022-11-11T09:37:44.193Z,18.63
2022-11-11T09:40:17.722Z,17.20
2022-11-11T09:42:49.601Z,19.75
2022-11-11T09:45:16.708Z,18.25
2022-11-11T09:48:06.199Z,18.50
2022-11-11T09:50:38.190Z,19.17
2022-11-11T09:53:05.324Z,18.63
2022-11-11T09:55:43.716Z,17.92
2022-11-11T09:58:10.865Z,17.88
2022-11-11T10:00:38.941Z,17.42
2022-11-11T10:03:13.752Z,16.52
2022-11-11T10:05:51.763Z,17.08
2022-11-11T10:08:34.121Z,17.48
2022-11-11T10:11:01.907Z,17.63
2022-11-11T10:13:33.743Z,17.77
2022-11-11T10:16:19.833Z,17.98
2022-11-11T10:18:47.000Z,17.17
2022-11-11T10:21:26.528Z,18.50
2022-11-11T10:23:56.171Z,18.52
2022-11-11T10:26:42.301Z,19.15
2022-11-11T10:29:19.956Z,19.67
2022-11-11T10:31:51.747Z,19.08
2022-11-11T10:34:19.692Z,18.85
2022-11-11T10:36:49.245Z,20.67
2022-11-11T10:39:21.692Z,20.02
2022-11-11T10:41:50.094Z,19.90
2022-11-11T10:44:23.386Z,20.25
2022-11-11T10:47:02.360Z,20.73
2022-11-11T10:49:32.290Z,21.45
2022-11-11T10:52:21.192Z,20.85
2022-11-11T10:54:48.303Z,20.33
2022-11-11T10:57:20.359Z,21.35
2022-11-11T11:00:07.752Z,19.67
2022-11-11T11:02:56.502Z,20.58
2022-11-11T11:05:26.888Z,20.55
2022-11-11T11:07:59.454Z,19.27
2022-11-11T11:10:29.670Z,18.38
2022-11-11T11:13:15.580Z,19.67
2022-11-11T11:15:49.153Z,19.45
2022-11-11T11:18:17.770Z,19.63
2022-11-11T11:21:04.732Z,18.42
2022-11-11T11:23:41.928Z,18.45
2022-11-11T11:26:10.052Z,19.10
2022-11-11T11:28:53.196Z,17.95
2022-11-11T11:31:27.887Z,18.27
2022-11-11T11:33:56.072Z,17.35
2022-11-11T11:36:23.310Z,16.20
2022-11-11T11:38:50.979Z,17.80
2022-11-11T11:41:19.250Z,16.55
2022-11-11T11:43:46.545Z,15.68
2022-11-11T11:46:32.532Z,16.17
2022-11-11T11:49:18.456Z,14.30
2022-11-11T11:51:45.603Z,14.10
2022-11-11T11:54:18.872Z,14.48
2022-11-11T11:56:48.807Z,13.57
2022-11-11T11:59:23.720Z,12.10
2022-11-11T12:01:54.884Z,10.93
2022-11-11T12:04:32.873Z,12.02
2022-11-11T12:07:13.509Z,10.95
2022-11-11T12:09:40.701Z,12.20
2022-11-11T12:12:23.060Z,11.20
2022-11-11T12:14:53.024Z,11.48
2022-11-11T12:17:20.140Z,12.10
2022-11-11T12:19:59.198Z,10.93
2022-11-11T12:22:26.437Z,11.77
2022-11-11T12:25:04.890Z,12.00
2022-11-11T12:27:32.068Z,11.73
2022-11-11T12:30:08.893Z,11.27
2022-11-11T12:32:39.023Z,12.52
2022-11-11T12:35:32.200Z,11.10
2022-11-11T12:38:05.450Z,10.77
2022-11-11T12:40:32.616Z,11.63
2022-11-11T12:43:18.582Z,11.10
2022-11-11T12:45:52.816Z,10.57
2022-11-11T12:48:25.878Z,10.32
2022-11-11T12:51:05.737Z,9.30
2022-11-11T12:53:36.109Z,9.18
2022-11-11T12:56:18.960Z,9.43
2022-11-11T12:58:55.235Z,9.13
2022-11-11T13:01:39.049Z,8.55
2022-11-11T13:04:21.259Z,9.48
2022-11-11T13:07:02.520Z,8.25
2022-11-11T13:09:52.485Z,8.85
2022-11-11T13:12:31.577Z,8.60
2022-11-11T13:15:01.555Z,8.32
2022-11-11T13:17:28.817Z,8.10
2022-11-11T13:19:59.481Z,7.80
2022-11-11T13:22:27.780Z,8.32
2022-11-11T13:24:58.619Z,8.45
2022-11-11T13:27:36.999Z,7.55
2022-11-11T13:30:06.856Z,8.60
2022-11-11T13:32:40.270Z,7.40
2022-11-11T13:35:26.692Z,8.35
2022-11-11T13:37:53.947Z,8.05
2022-11-11T13:40:27.034Z,8.15
2022-11-11T13:42:54.496Z,7.95
2022-11-11T13:45:27.569Z,7.00
2022-11-11T13:47:55.722Z,8.50
2022-11-11T13:50:25.936Z,8.40
2022-11-11T13:52:56.040Z,9.10
2022-11-11T13:55:42.339Z,8.48
2022-11-11T13:58:22.668Z,8.73
2022-11-11T14:00:58.713Z,8.85
2022-11-11T14:03:26.227Z,9.10
2022-11-11T14:06:12.384Z,9.60
2022-11-11T14:08:50.492Z,9.35
2022-11-11T14:11:26.856Z,10.10
2022-11-11T14:14:00.243Z,9.15
2022-11-11T14:16:48.783Z,9.87
2022-11-11T14:19:15.922Z,9.82
2022-11-11T14:21:58.648Z,10.43
2022-11-11T14:24:35.660Z,10.57
2022-11-11T14:27:04.000Z,9.55
2022-11-11T14:29:36.111Z,9.27
2022-11-11T14:32:21.700Z,9.88
2022-11-11T14:35:07.544Z,9.10
2022-11-11T14:37:53.409Z,10.00
2022-11-11T14:42:48.142Z,9.98
2022-11-11T14:45:26.948Z,9.48
2022-11-11T14:47:56.466Z,10.38
2022-11-11T14:50:33.113Z,10.48
2022-11-11T14:53:01.095Z,9.55
2022-11-11T14:55:28.207Z,9.52
2022-11-11T14:57:55.339Z,9.68
2022-11-11T15:00:23.834Z,10.13
2022-11-11T15:03:03.218Z,9.55
2022-11-11T15:05:39.362Z,11.10
2022-11-11T15:08:20.296Z,11.20
2022-11-11T15:10:53.619Z,10.65
2022-11-11T15:13:20.764Z,11.35
2022-11-11T15:16:00.203Z,10.70
2022-11-11T15:18:48.238Z,9.70
2022-11-11T15:21:22.978Z,11.00
2022-11-11T15:24:10.463Z,10.02
2022-11-11T15:26:49.907Z,10.93
2022-11-11T15:29:43.749Z,11.55
2022-11-11T15:32:13.945Z,10.55
2022-11-11T15:34:41.060Z,10.52
2022-11-11T15:37:18.623Z,11.88
2022-11-11T15:39:47.090Z,10.88
2022-11-11T15:42:19.354Z,10.55
2022-11-11T15:44:46.552Z,11.07
2022-11-11T15:47:14.882Z,10.63
2022-11-11T15:49:42.060Z,12.35
2022-11-11T15:52:25.419Z,12.15
2022-11-11T15:54:52.917Z,11.18
2022-11-11T15:57:30.753Z,10.93
2022-11-11T15:59:59.028Z,12.00
2022-11-11T16:02:28.379Z,11.57
2022-11-11T16:05:00.233Z,10.93
2022-11-11T16:07:29.938Z,9.85
2022-11-11T16:09:59.419Z,10.68
2022-11-11T16:12:33.810Z,10.05
2022-11-11T16:15:02.114Z,10.98
2022-11-11T16:17:31.280Z,10.23
2022-11-11T16:19:58.638Z,11.02
2022-11-11T16:22:30.515Z,10.82
2022-11-11T16:24:57.889Z,11.27
2022-11-11T16:27:32.677Z,12.75
2022-11-11T16:30:19.448Z,12.88
2022-11-11T16:32:46.675Z,14.60
2022-11-11T16:35:27.371Z,15.38
2022-11-11T16:37:55.557Z,16.40
2022-11-11T16:40:48.872Z,17.13
2022-11-11T16:43:16.236Z,17.90
2022-11-11T16:46:02.373Z,20.55
2022-11-11T16:48:33.634Z,20.88
2022-11-11T16:51:05.648Z,19.02
2022-11-11T16:53:35.124Z,19.30
2022-11-11T16:56:06.589Z,18.90
2022-11-11T16:58:43.759Z,16.50
2022-11-11T17:01:11.510Z,15.57
2022-11-11T17:03:53.277Z,13.88
2022-11-11T17:06:20.485Z,15.05
2022-11-11T17:08:47.697Z,14.13
2022-11-11T17:11:33.576Z,12.80
2022-11-11T17:14:00.738Z,12.77
2022-11-11T17:16:27.876Z,14.98
2022-11-11T17:18:55.025Z,12.68
2022-11-11T17:21:22.180Z,12.07
2022-11-11T17:23:49.387Z,11.40
2022-11-11T17:26:17.911Z,11.80
2022-11-11T17:28:45.373Z,11.90
2022-11-11T17:31:13.379Z,12.05
2022-11-11T17:33:40.520Z,10.70
2022-11-11T17:36:07.805Z,10.27
2022-11-11T17:38:38.248Z,12.48
2022-11-11T17:41:05.707Z,12.35
2022-11-11T17:43:32.996Z,11.02
2022-11-11T17:46:04.532Z,10.73
2022-11-11T17:48:32.057Z,11.35
2022-11-11T17:50:59.688Z,11.18
2022-11-11T17:53:27.326Z,12.30
2022-11-11T17:55:54.747Z,11.32
2022-11-11T17:58:21.925Z,10.68
2022-11-11T18:00:49.099Z,9.32
2022-11-11T18:03:17.192Z,11.55
2022-11-11T18:05:44.325Z,11.20
2022-11-11T18:08:11.493Z,9.90
2022-11-11T18:10:39.408Z,10.48
2022-11-11T18:13:06.554Z,11.10
2022-11-11T18:15:34.826Z,10.23
2022-11-11T18:18:01.985Z,10.45
2022-11-11T18:20:29.132Z,10.23
2022-11-11T18:22:57.147Z,11.15
2022-11-11T18:25:24.436Z,10.88
2022-11-11T18:27:54.575Z,11.38
2022-11-11T18:30:22.672Z,10.13
2022-11-11T18:32:49.844Z,10.80
2022-11-11T18:35:18.671Z,10.70
2022-11-11T18:37:46.864Z,9.60
2022-11-11T18:40:14.291Z,11.10
2022-11-11T18:42:41.423Z,10.75
2022-11-11T18:45:08.855Z,10.05
2022-11-11T18:47:35.991Z,10.82
2022-11-11T18:50:03.278Z,10.93
2022-11-11T18:52:30.419Z,11.30
2022-11-11T18:54:57.567Z,10.32
2022-11-11T18:57:24.744Z,10.23
2022-11-11T18:59:51.876Z,10.40
2022-11-11T19:02:19.055Z,10.63
2022-11-11T19:04:46.253Z,9.95
2022-11-11T19:07:13.465Z,11.52
2022-11-11T19:09:40.624Z,10.23
2022-11-11T19:12:07.889Z,11.05
2022-11-11T19:14:35.016Z,11.18
2022-11-11T19:17:02.189Z,11.48
2022-11-11T19:19:29.356Z,12.00
2022-11-11T19:21:56.549Z,11.32
2022-11-11T19:24:23.709Z,11.38
2022-11-11T19:26:51.128Z,10.88
2022-11-11T19:29:18.415Z,11.90
2022-11-11T19:31:45.575Z,12.05
2022-11-11T19:34:12.787Z,11.75
2022-11-11T19:36:39.982Z,10.40
2022-11-11T19:39:07.179Z,11.52
2022-11-11T19:41:34.422Z,11.63
2022-11-11T19:44:01.684Z,12.32
2022-11-11T19:46:30.326Z,13.45
2022-11-11T19:48:58.422Z,13.52
2022-11-11T19:51:26.542Z,14.45
2022-11-11T19:53:56.678Z,14.93
2022-11-11T19:56:24.810Z,15.13
2022-11-11T19:58:52.249Z,14.77
2022-11-11T20:01:21.708Z,17.25
2022-11-11T20:03:49.861Z,15.82
2022-11-11T20:06:36.152Z,16.40
2022-11-11T20:09:06.369Z,17.80
2022-11-11T20:11:33.949Z,13.38
2022-11-11T20:14:03.456Z,13.77
2022-11-11T20:16:30.864Z,13.60
2022-11-11T20:18:58.656Z,13.63
2022-11-11T20:21:25.921Z,12.93
2022-11-11T20:23:53.438Z,12.98
2022-11-11T20:26:20.849Z,13.02
2022-11-11T20:28:47.980Z,13.55
2022-11-11T20:31:18.643Z,13.65
2022-11-11T20:33:45.828Z,13.73
2022-11-11T20:36:13.917Z,13.18
2022-11-11T20:38:41.247Z,12.90
2022-11-11T20:41:10.657Z,12.45
2022-11-11T20:43:38.105Z,13.25
2022-11-11T20:46:06.936Z,12.70
2022-11-11T20:48:34.582Z,11.98
2022-11-11T20:51:05.796Z,11.07
2022-11-11T20:53:33.225Z,11.15
2022-11-11T20:56:03.251Z,13.07
2022-11-11T20:58:30.456Z,11.73
2022-11-11T21:01:11.422Z,12.05
2022-11-11T21:03:38.695Z,12.50
2022-11-11T21:06:06.860Z,11.85
2022-11-11T21:08:34.790Z,12.30
2022-11-11T21:11:02.199Z,12.48
2022-11-11T21:13:30.092Z,13.20
2022-11-11T21:16:23.395Z,15.95
2022-11-11T21:18:50.594Z,13.52
2022-11-11T21:21:22.171Z,14.75
2022-11-11T21:23:49.752Z,14.43
2022-11-11T21:26:19.880Z,15.00
2022-11-11T21:28:47.430Z,13.55
2022-11-11T21:31:28.114Z,14.85
2022-11-11T21:33:56.278Z,14.20
2022-11-11T21:36:24.849Z,13.93
2022-11-11T21:38:52.372Z,15.75
2022-11-11T21:41:20.835Z,13.27
2022-11-11T21:43:48.058Z,14.93
2022-11-11T21:46:16.932Z,12.70
2022-11-11T21:48:44.416Z,13.88
2022-11-11T21:51:15.651Z,14.15
2022-11-11T21:53:43.849Z,13.82
2022-11-11T21:56:15.345Z,13.23
2022-11-11T21:58:42.824Z,12.98
2022-11-11T22:01:11.316Z,13.40
2022-11-11T22:03:39.833Z,11.48
2022-11-11T22:06:08.483Z,12.82
2022-11-11T22:08:35.792Z,12.85
2022-11-11T22:11:07.131Z,12.82
2022-11-11T22:13:34.818Z,11.98
2022-11-11T22:16:03.080Z,12.30
2022-11-11T22:18:30.346Z,12.00
2022-11-11T22:21:08.090Z,13.93
2022-11-11T22:23:35.730Z,12.65
2022-11-11T22:26:06.935Z,12.65
2022-11-11T22:28:34.544Z,11.38
2022-11-11T22:31:21.061Z,11.50
2022-11-11T22:33:48.755Z,11.65
2022-11-11T22:36:16.903Z,11.38
2022-11-11T22:38:44.561Z,13.38
2022-11-11T22:41:16.042Z,12.57
2022-11-11T22:44:01.097Z,12.27
2022-11-11T22:46:29.678Z,12.70
2022-11-11T22:48:58.180Z,12.32
2022-11-11T22:51:26.329Z,11.93
2022-11-11T22:54:00.773Z,11.93
2022-11-11T22:56:28.875Z,12.88
2022-11-11T22:58:56.412Z,11.98
2022-11-11T23:01:29.033Z,12.98
2022-11-11T23:03:57.931Z,14.30
2022-11-11T23:06:26.595Z,13.32
2022-11-11T23:08:54.044Z,14.77
2022-11-11T23:11:22.611Z,13.05
2022-11-11T23:13:50.464Z,12.13
2022-11-11T23:16:19.452Z,13.07
2022-11-11T23:18:46.996Z,13.80
2022-11-11T23:21:21.552Z,13.55
2022-11-11T23:23:49.450Z,12.82
2022-11-11T23:26:21.404Z,13.85
2022-11-11T23:28:49.145Z,13.60
2022-11-11T23:31:17.851Z,13.82
2022-11-11T23:33:46.080Z,13.55
2022-11-11T23:36:14.455Z,14.75
2022-11-11T23:38:41.958Z,14.75
2022-11-11T23:41:09.367Z,15.07
2022-11-11T23:43:36.720Z,13.88
2022-11-11T23:46:04.883Z,13.77
2022-11-11T23:48:32.492Z,13.93
2022-11-11T23:50:59.938Z,13.02
2022-11-11T23:53:27.120Z,14.27
2022-11-11T23:55:54.304Z,16.88
2022-11-11T23:58:21.549Z,16.25
